KPGA/PGA METAR and TAF weather

Enter ICAO airport designator
Station Type Date Time Source
KPGA METAR 2020/11/25 16:53 UTC NOAA

KPGA 251653Z AUTO 00000KT 10SM CLR 05/M07 A3017 RMK AO2 SLP209 T00501072 TSNO


Station Type Date Time Source
KPGA Decoded METAR 2020/11/25 16:53 UTC NOAA

PAGE MUNICIPAL AIRPORT, AZ, United States (KPGA) 36-56N 111-27W 1307M
Nov 25, 2020 - 11:53 AM EST / 2020.11.25 1653 UTC
Wind: Calm:0
Visibility: 10 mile(s):0
Sky conditions: clear
Temperature: 41.0 F (5.0 C)
Dew Point: 19.0 F (-7.2 C)
Relative Humidity: 40%
Pressure (altimeter): 30.17 in. Hg (1021 hPa)
ob: KPGA 251653Z AUTO 00000KT 10SM CLR 05/M07 A3017 RMK AO2 SLP209 T00501072 TSNO
cycle: 17

Station Type Date Time Source
KPGA TAF 2020/11/25 18:22 UTC NOAA

TAF KPGA 251720Z 2518/2618 VRB03KT P6SM SKC

Example: see airport list